Time;durP1;ratioP1;P1;durP2;ratioP2;P2;SDS_P1;SDS_P2;PMS_P1;PMS_P2;Temp;Humidity;BMP_temperature;BMP_pressure;BME280_temperature;BME280_humidity;BME280_pressure;Samples;Min_cycle;Max_cycle;Signal;HPM_P1;HPM_P2
2023/08/10 00:05:39;;;;;;;5.18;2.80;;;;;;;25.12;100.00;100310.00;31629349;28;20460;-74
2023/08/10 00:20:41;;;;;;;4.82;2.25;;;;;;;25.24;100.00;100311.47;31651672;28;20139;-73
2023/08/10 00:35:43;;;;;;;3.80;2.78;;;;;;;25.48;100.00;100303.22;31664365;28;20464;-73
2023/08/10 00:50:45;;;;;;;4.93;2.30;;;;;;;25.46;99.35;100316.13;31662629;28;20071;-73
2023/08/10 01:05:59;;;;;;;6.43;2.45;;;;;;;25.19;100.00;100315.03;31675472;28;20083;-75
2023/08/10 01:21:12;;;;;;;3.45;2.42;;;;;;;25.14;100.00;100324.16;31666034;28;20518;-74
2023/08/10 01:36:14;;;;;;;3.47;2.17;;;;;;;25.14;100.00;100315.81;31652467;28;20080;-74
2023/08/10 01:51:21;;;;;;;4.95;2.90;;;;;;;25.04;100.00;100309.03;31646196;28;20071;-76
2023/08/10 02:06:23;;;;;;;2.80;2.13;;;;;;;24.84;100.00;100321.25;31639013;28;20554;-74
2023/08/10 02:21:26;;;;;;;3.95;2.75;;;;;;;24.71;100.00;100301.63;31644874;28;20150;-74
2023/08/10 02:36:28;;;;;;;3.90;2.90;;;;;;;24.71;100.00;100302.38;31652530;28;20557;-73
2023/08/10 02:51:30;;;;;;;4.53;3.20;;;;;;;24.53;100.00;100294.63;31649053;28;20048;-75
2023/08/10 03:06:33;;;;;;;6.32;2.95;;;;;;;24.66;100.00;100296.84;31646437;28;20537;-74
2023/08/10 03:21:35;;;;;;;4.40;3.00;;;;;;;24.83;100.00;100289.94;31656336;28;20079;-74
2023/08/10 03:36:37;;;;;;;4.05;3.20;;;;;;;25.16;100.00;100277.16;31641881;28;20678;-76
2023/08/10 03:51:39;;;;;;;4.10;3.03;;;;;;;25.29;100.00;100291.22;31645046;28;20047;-75
2023/08/10 04:06:41;;;;;;;7.17;3.43;;;;;;;25.74;98.27;100302.78;31674475;28;20135;-74
2023/08/10 04:21:47;;;;;;;4.85;3.33;;;;;;;26.04;95.57;100299.97;31672139;28;20468;-75
2023/08/10 04:36:49;;;;;;;6.13;3.58;;;;;;;26.57;90.78;100294.09;31666815;28;20059;-80
2023/08/10 04:51:50;;;;;;;5.22;3.10;;;;;;;26.80;88.22;100293.28;31668115;28;20083;-74
2023/08/10 05:06:53;;;;;;;4.63;3.23;;;;;;;27.25;86.15;100291.94;31673052;28;20083;-74
2023/08/10 05:21:55;;;;;;;31.87;5.47;;;;;;;28.02;81.31;100266.84;31672748;28;20110;-75
2023/08/10 05:36:58;;;;;;;5.00;3.23;;;;;;;28.46;79.54;100254.81;31649570;28;20079;-76
2023/08/10 05:52:00;;;;;;;4.38;3.40;;;;;;;29.02;77.09;100233.31;31684752;28;20079;-76
2023/08/10 06:07:02;;;;;;;5.10;3.50;;;;;;;29.39;74.49;100227.31;31655512;28;20044;-76
2023/08/10 06:22:04;;;;;;;7.53;3.30;;;;;;;30.25;72.42;100232.97;31644912;28;20510;-76
2023/08/10 06:37:07;;;;;;;4.93;3.63;;;;;;;30.94;69.45;100234.00;31651908;28;20371;-76
2023/08/10 06:52:09;;;;;;;4.10;3.13;;;;;;;31.72;66.97;100253.91;31633360;28;20127;-75
2023/08/10 07:07:12;;;;;;;6.85;3.50;;;;;;;31.71;65.56;100272.03;31649208;28;20147;-74
2023/08/10 07:22:14;;;;;;;7.85;4.38;;;;;;;31.94;65.35;100264.34;31631143;28;20071;-75
2023/08/10 07:37:16;;;;;;;9.82;4.00;;;;;;;33.43;62.40;100259.19;31642147;28;20056;-75
2023/08/10 07:52:18;;;;;;;3.92;3.17;;;;;;;32.47;62.68;100229.75;31635309;28;20140;-76
2023/08/10 08:07:20;;;;;;;5.70;3.65;;;;;;;32.70;60.81;100196.66;31632734;28;20074;-75
2023/08/10 08:22:23;;;;;;;7.32;4.55;;;;;;;32.28;64.02;100160.00;31626187;28;20075;-74
2023/08/10 08:37:25;;;;;;;6.70;5.68;;;;;;;32.84;60.77;100180.28;31645169;28;20110;-75
2023/08/10 08:52:27;;;;;;;14.85;8.27;;;;;;;34.80;57.24;100198.56;31670736;28;20410;-74
2023/08/10 09:07:30;;;;;;;25.52;7.43;;;;;;;34.84;55.67;100218.63;31645451;28;20461;-73
2023/08/10 09:22:35;;;;;;;10.27;7.68;;;;;;;33.75;57.23;100193.63;31641969;28;20088;-75
2023/08/10 09:37:37;;;;;;;14.23;6.10;;;;;;;33.61;59.63;100189.63;31656836;28;20079;-76
2023/08/10 09:52:40;;;;;;;10.07;5.85;;;;;;;33.24;60.47;100194.25;31637646;28;20565;-74
2023/08/10 10:07:44;;;;;;;9.57;6.47;;;;;;;35.85;56.26;100143.75;31659635;28;20499;-75
2023/08/10 10:22:46;;;;;;;13.75;9.35;;;;;;;37.06;54.45;100142.38;31645656;28;20055;-75
2023/08/10 10:37:58;;;;;;;14.75;10.85;;;;;;;36.18;54.70;100148.91;31641345;28;20416;-74
2023/08/10 10:53:02;;;;;;;25.38;11.32;;;;;;;34.88;56.04;100123.06;31649773;28;20495;-76
2023/08/10 11:08:06;;;;;;;12.00;8.00;;;;;;;36.84;55.18;100130.31;31644851;28;20051;-76
2023/08/10 11:23:08;;;;;;;13.38;7.68;;;;;;;37.86;53.35;100111.56;31611593;28;20078;-76
2023/08/10 11:38:11;;;;;;;9.38;7.28;;;;;;;36.63;53.56;100113.22;31658380;28;20150;-76
2023/08/10 11:53:20;;;;;;;9.38;6.78;;;;;;;34.63;57.07;100102.03;31625596;28;20044;-75
2023/08/10 12:08:41;;;;;;;11.25;6.90;;;;;;;33.80;62.62;100068.03;31624016;28;20054;-75
2023/08/10 12:23:43;;;;;;;12.97;8.13;;;;;;;33.41;64.45;100087.41;31658172;28;20044;-75
2023/08/10 12:38:45;;;;;;;44.92;20.80;;;;;;;33.05;67.32;100101.25;31648976;28;20456;-74
2023/08/10 12:53:47;;;;;;;15.00;9.27;;;;;;;33.06;68.83;100083.06;31631138;28;20075;-75
2023/08/10 13:08:50;;;;;;;14.88;8.13;;;;;;;32.87;71.58;100083.56;31630565;28;20048;-76
2023/08/10 13:23:52;;;;;;;23.90;8.75;;;;;;;32.37;82.00;100096.84;31650814;28;20477;-77
2023/08/10 13:38:56;;;;;;;21.77;10.23;;;;;;;30.93;100.00;99981.00;31652650;28;20441;-77
2023/08/10 13:53:58;;;;;;;;;;;;;;;29.80;100.00;99832.06;31647180;28;20071;-75
2023/08/10 14:09:00;;;;;;;23.23;12.57;;;;;;;29.00;100.00;99830.75;31657927;28;20007;-76
2023/08/10 14:24:03;;;;;;;25.13;12.20;;;;;;;29.17;100.00;99893.22;31653834;28;20101;-74
2023/08/10 14:39:05;;;;;;;24.67;14.03;;;;;;;28.89;100.00;99786.38;31646298;28;20075;-74
2023/08/10 14:54:07;;;;;;;21.43;12.07;;;;;;;28.67;100.00;99815.66;31643476;28;20040;-77
2023/08/10 15:09:10;;;;;;;21.33;12.75;;;;;;;28.65;100.00;99823.84;31631768;28;20039;-78
2023/08/10 15:24:12;;;;;;;23.33;12.83;;;;;;;28.58;100.00;99836.50;31645179;28;20085;-77
2023/08/10 15:39:14;;;;;;;23.43;13.30;;;;;;;28.57;100.00;99829.41;31645350;28;20381;-77
2023/08/10 15:54:16;;;;;;;23.03;13.93;;;;;;;28.60;100.00;99811.53;31640577;28;20048;-77
2023/08/10 16:09:19;;;;;;;19.50;12.40;;;;;;;28.65;100.00;99821.81;31659003;28;20044;-75
2023/08/10 16:24:21;;;;;;;22.53;12.67;;;;;;;28.60;100.00;99817.13;31647664;27;20079;-75
2023/08/10 16:39:23;;;;;;;20.83;13.53;;;;;;;28.51;100.00;99798.84;31648856;28;20502;-76
2023/08/10 16:54:25;;;;;;;17.37;12.23;;;;;;;28.45;100.00;99806.63;31658050;28;20150;-76
2023/08/10 17:09:27;;;;;;;18.87;12.77;;;;;;;28.17;100.00;99804.56;31640091;28;20518;-77
2023/08/10 17:24:29;;;;;;;19.50;13.70;;;;;;;28.21;100.00;99809.06;31662786;28;20052;-75
2023/08/10 17:39:31;;;;;;;21.77;13.80;;;;;;;28.19;100.00;99801.97;31647402;28;20106;-77
2023/08/10 17:54:33;;;;;;;22.23;13.30;;;;;;;28.17;100.00;99809.38;31674043;28;20059;-77
2023/08/10 18:09:35;;;;;;;18.13;13.03;;;;;;;28.18;100.00;99833.97;31661386;28;20089;-75
2023/08/10 18:24:37;;;;;;;14.73;10.80;;;;;;;28.31;100.00;99808.03;31673496;28;20066;-76
2023/08/10 18:39:40;;;;;;;21.23;12.33;;;;;;;28.05;100.00;99814.53;31647509;28;20055;-77
2023/08/10 18:54:42;;;;;;;16.83;11.60;;;;;;;28.01;100.00;99822.50;31656229;28;20043;-77
2023/08/10 19:09:44;;;;;;;17.23;10.67;;;;;;;28.05;100.00;99839.63;31642553;28;20701;-77
2023/08/10 19:24:46;;;;;;;21.20;13.70;;;;;;;27.89;100.00;99832.44;31643970;28;20495;-76
2023/08/10 19:39:48;;;;;;;17.83;11.10;;;;;;;27.80;100.00;99830.88;31643228;28;20507;-76
2023/08/10 19:54:50;;;;;;;15.43;11.60;;;;;;;27.76;100.00;99832.50;31649074;28;20079;-77
2023/08/10 20:09:52;;;;;;;20.10;12.47;;;;;;;27.84;100.00;99811.78;31650255;28;20047;-76
2023/08/10 20:24:54;;;;;;;27.83;15.90;;;;;;;27.79;100.00;99797.97;31640303;28;20094;-78
2023/08/10 20:39:56;;;;;;;20.43;13.37;;;;;;;27.88;100.00;99805.81;31663301;28;20387;-76
2023/08/10 20:54:58;;;;;;;23.93;15.77;;;;;;;27.87;100.00;99815.50;31682486;28;20127;-75
2023/08/10 21:10:00;;;;;;;26.70;15.83;;;;;;;27.95;100.00;99804.41;31669758;28;20067;-76
2023/08/10 21:25:02;;;;;;;28.20;17.90;;;;;;;28.02;100.00;99815.63;31655925;28;20482;-78
2023/08/10 21:40:06;;;;;;;26.97;18.17;;;;;;;27.99;100.00;99802.00;31675227;28;20055;-76
2023/08/10 21:55:08;;;;;;;29.83;17.77;;;;;;;27.92;100.00;99775.56;31662662;28;20048;-76
2023/08/10 22:10:11;;;;;;;33.33;19.50;;;;;;;27.88;100.00;99772.34;31670451;28;20059;-76
2023/08/10 22:25:13;;;;;;;32.63;18.63;;;;;;;28.02;100.00;99768.19;31667015;28;20098;-75
2023/08/10 22:40:16;;;;;;;57.73;28.20;;;;;;;28.17;100.00;99776.66;31674778;28;20048;-75
2023/08/10 22:55:18;;;;;;;22.45;14.32;;;;;;;28.22;100.00;99777.09;31668854;28;20051;-76
2023/08/10 23:10:20;;;;;;;23.17;14.57;;;;;;;28.26;100.00;99760.75;31670972;28;20039;-75
2023/08/10 23:25:22;;;;;;;18.53;13.73;;;;;;;28.12;100.00;99763.59;31657427;28;20055;-75
2023/08/10 23:40:25;;;;;;;16.47;11.50;;;;;;;27.88;100.00;99752.09;31663066;28;20052;-75
2023/08/10 23:55:27;;;;;;;16.52;11.40;;;;;;;27.86;100.00;99724.75;31629544;28;20055;-76
